Time;durP1;ratioP1;P1;durP2;ratioP2;P2;SDS_P1;SDS_P2;PMS_P1;PMS_P2;Temp;Humidity;BMP_temperature;BMP_pressure;BME280_temperature;BME280_humidity;BME280_pressure;Samples;Min_cycle;Max_cycle;Signal;HPM_P1;HPM_P2
2021/11/03 00:00:24;;;;;;;16.77;9.67;;;6.70;98.50;;;;;;5010053;28;20333;-73
2021/11/03 00:02:50;;;;;;;16.43;10.40;;;6.60;98.50;;;;;;5025784;28;20215;-72
2021/11/03 00:05:17;;;;;;;15.97;10.07;;;6.60;98.50;;;;;;5032095;28;20176;-73
2021/11/03 00:07:43;;;;;;;16.23;9.33;;;6.60;98.50;;;;;;5012958;28;20595;-72
2021/11/03 00:10:12;;;;;;;15.80;9.73;;;6.60;98.50;;;;;;5025149;28;20183;-73
2021/11/03 00:12:38;;;;;;;16.10;9.00;;;6.60;98.50;;;;;;5032347;28;20179;-73
2021/11/03 00:15:05;;;;;;;14.20;8.37;;;6.60;98.50;;;;;;5032385;28;20215;-73
2021/11/03 00:17:30;;;;;;;13.57;8.13;;;6.60;98.50;;;;;;5016083;28;20195;-72
2021/11/03 00:19:56;;;;;;;9.50;7.30;;;6.60;98.50;;;;;;5031046;28;20180;-73
2021/11/03 00:22:22;;;;;;;16.43;7.67;;;6.60;98.50;;;;;;5006965;28;20232;-72
2021/11/03 00:24:48;;;;;;;15.30;8.10;;;6.60;98.50;;;;;;5030389;28;20198;-73
2021/11/03 00:27:14;;;;;;;14.37;7.70;;;6.60;98.50;;;;;;5029886;28;20215;-73
2021/11/03 00:29:40;;;;;;;11.80;7.43;;;6.60;98.50;;;;;;5036828;28;20665;-72
2021/11/03 00:32:07;;;;;;;12.53;6.93;;;6.60;98.50;;;;;;5030748;28;20245;-73
2021/11/03 00:34:33;;;;;;;15.30;6.97;;;6.60;98.50;;;;;;5025675;28;20199;-73
2021/11/03 00:36:59;;;;;;;16.07;7.77;;;6.60;98.50;;;;;;5026947;28;20188;-73
2021/11/03 00:39:26;;;;;;;10.93;7.37;;;6.50;98.50;;;;;;5035747;28;20234;-73
2021/11/03 00:41:53;;;;;;;11.10;6.53;;;6.50;98.50;;;;;;5013563;28;20195;-73
2021/11/03 00:44:20;;;;;;;10.23;7.17;;;6.50;98.50;;;;;;5030327;28;20207;-73
2021/11/03 00:46:46;;;;;;;9.80;7.13;;;6.50;98.50;;;;;;5034454;28;20188;-73
2021/11/03 00:49:11;;;;;;;10.03;7.03;;;6.40;98.50;;;;;;5033489;28;20185;-73
2021/11/03 00:51:37;;;;;;;11.10;6.73;;;6.40;98.50;;;;;;5015111;28;20192;-73
2021/11/03 00:54:03;;;;;;;11.53;6.67;;;6.40;98.50;;;;;;5016220;28;20701;-72
2021/11/03 00:56:29;;;;;;;10.67;6.80;;;6.40;98.50;;;;;;5031653;28;20195;-72
2021/11/03 00:58:54;;;;;;;9.47;5.57;;;6.40;98.50;;;;;;5036770;28;20175;-72
2021/11/03 01:01:20;;;;;;;11.30;7.50;;;6.40;98.50;;;;;;5032030;28;20207;-73
2021/11/03 01:03:47;;;;;;;9.50;7.07;;;6.50;98.50;;;;;;5029566;28;20216;-73
2021/11/03 01:06:13;;;;;;;9.23;5.93;;;6.50;98.50;;;;;;5024832;28;20188;-73
2021/11/03 01:08:40;;;;;;;11.07;6.13;;;6.50;98.50;;;;;;5037981;28;20194;-72
2021/11/03 01:11:05;;;;;;;12.07;7.33;;;6.60;98.50;;;;;;5035460;28;20179;-72
2021/11/03 01:13:31;;;;;;;14.13;8.43;;;6.60;98.50;;;;;;5030339;28;20659;-73
2021/11/03 01:15:58;;;;;;;16.20;9.27;;;6.60;98.50;;;;;;5035051;28;20183;-73
2021/11/03 01:18:29;;;;;;;16.33;9.40;;;6.60;98.50;;;;;;5036579;28;20184;-73
2021/11/03 01:20:56;;;;;;;19.37;10.07;;;6.60;98.50;;;;;;5036257;28;20191;-73
2021/11/03 01:23:22;;;;;;;16.13;9.67;;;6.60;98.50;;;;;;5032384;28;20413;-73
2021/11/03 01:25:48;;;;;;;15.37;10.13;;;6.60;98.50;;;;;;5029895;28;20184;-73
2021/11/03 01:28:15;;;;;;;15.07;10.17;;;6.60;98.50;;;;;;5033439;28;20211;-73
2021/11/03 01:30:45;;;;;;;19.77;9.93;;;6.60;98.50;;;;;;5032255;28;20249;-72
2021/11/03 01:33:12;;;;;;;13.90;9.50;;;6.70;98.50;;;;;;5030793;28;20279;-73
2021/11/03 01:35:38;;;;;;;15.83;8.57;;;6.70;98.50;;;;;;5031865;28;20199;-73
2021/11/03 01:38:03;;;;;;;15.13;9.70;;;6.70;98.50;;;;;;5033444;28;20183;-72
2021/11/03 01:40:32;;;;;;;13.43;9.20;;;6.70;98.50;;;;;;5036340;28;20578;-74
2021/11/03 01:42:58;;;;;;;16.63;9.77;;;6.70;98.50;;;;;;5037143;28;20762;-73
2021/11/03 01:45:26;;;;;;;22.43;11.90;;;6.80;98.50;;;;;;5028247;28;20188;-73
2021/11/03 01:47:53;;;;;;;24.47;12.77;;;6.70;98.50;;;;;;5015132;28;20224;-73
2021/11/03 01:50:26;;;;;;;23.90;12.23;;;6.80;98.50;;;;;;5035342;28;20180;-73
2021/11/03 01:53:16;;;;;;;17.00;10.50;;;6.80;98.50;;;;;;5037132;28;20211;-73
2021/11/03 01:56:10;;;;;;;17.50;9.67;;;6.80;98.50;;;;;;5032454;28;20674;-72
2021/11/03 01:58:41;;;;;;;21.97;11.97;;;6.70;98.50;;;;;;5031609;28;20262;-72
2021/11/03 02:01:07;;;;;;;19.80;11.70;;;6.80;98.50;;;;;;5031366;28;20583;-72
2021/11/03 02:03:34;;;;;;;18.20;11.30;;;6.80;98.50;;;;;;5026865;28;20219;-72
2021/11/03 02:06:04;;;;;;;16.67;10.03;;;6.80;98.50;;;;;;5033660;28;20183;-72
2021/11/03 02:08:34;;;;;;;15.37;9.63;;;6.80;98.50;;;;;;5023765;28;20180;-73
2021/11/03 02:11:00;;;;;;;19.67;9.73;;;6.80;98.50;;;;;;5027670;28;20176;-72
2021/11/03 02:13:26;;;;;;;16.87;8.53;;;6.80;98.50;;;;;;5033890;28;20263;-72
2021/11/03 02:15:52;;;;;;;18.37;9.77;;;6.80;98.50;;;;;;5034498;28;20193;-73
2021/11/03 02:18:21;;;;;;;21.30;10.30;;;6.80;98.50;;;;;;5031481;28;20199;-73
2021/11/03 02:20:49;;;;;;;18.47;10.00;;;6.90;98.50;;;;;;5029326;28;20262;-73
2021/11/03 02:23:47;;;;;;;20.97;10.30;;;6.90;98.50;;;;;;5003710;28;20212;-73
2021/11/03 02:26:19;;;;;;;12.70;7.70;;;6.90;98.50;;;;;;5028586;28;20184;-73
2021/11/03 02:28:47;;;;;;;15.23;8.10;;;6.90;98.50;;;;;;5037296;28;20184;-73
2021/11/03 02:31:46;;;;;;;13.80;8.30;;;6.80;98.50;;;;;;5035960;28;20179;-73
2021/11/03 02:34:25;;;;;;;14.37;9.43;;;6.80;98.50;;;;;;5030100;28;20948;-73
2021/11/03 02:36:57;;;;;;;17.23;8.73;;;6.80;98.50;;;;;;5032239;28;20191;-73
2021/11/03 02:39:34;;;;;;;18.57;8.43;;;6.80;98.50;;;;;;5033601;28;20215;-73
2021/11/03 02:42:00;;;;;;;15.47;8.07;;;6.80;98.50;;;;;;5026728;28;20579;-73
2021/11/03 02:44:28;;;;;;;18.37;8.63;;;6.80;98.50;;;;;;5032287;28;20219;-73
2021/11/03 02:46:54;;;;;;;16.27;7.87;;;6.80;98.50;;;;;;5030002;28;20570;-73
2021/11/03 02:49:19;;;;;;;11.77;7.37;;;6.80;98.50;;;;;;5033902;28;20191;-73
2021/11/03 02:51:45;;;;;;;13.30;8.40;;;6.90;98.50;;;;;;5034951;28;20893;-73
2021/11/03 02:54:15;;;;;;;15.73;8.07;;;6.90;98.50;;;;;;5032958;28;20276;-73
2021/11/03 02:56:44;;;;;;;11.73;7.77;;;6.90;98.50;;;;;;5031197;28;20184;-73
2021/11/03 02:59:12;;;;;;;12.40;7.80;;;6.90;98.50;;;;;;5032872;28;20218;-73
2021/11/03 03:01:44;;;;;;;15.67;9.80;;;6.90;98.50;;;;;;5025756;28;20188;-73
2021/11/03 03:04:14;;;;;;;14.33;8.47;;;6.90;98.50;;;;;;5034647;28;20212;-73
2021/11/03 03:06:41;;;;;;;13.53;9.47;;;7.00;98.50;;;;;;5032536;28;20215;-73
2021/11/03 03:09:07;;;;;;;13.83;8.40;;;7.00;98.50;;;;;;5033207;28;20885;-73
2021/11/03 03:11:36;;;;;;;15.80;8.97;;;7.00;98.50;;;;;;5035291;28;20209;-73
2021/11/03 03:14:03;;;;;;;15.00;9.43;;;7.00;98.50;;;;;;5032872;28;20203;-73
2021/11/03 03:16:29;;;;;;;17.30;9.80;;;6.90;98.50;;;;;;5034362;28;20234;-73
2021/11/03 03:18:55;;;;;;;21.47;10.13;;;6.90;98.50;;;;;;5030318;28;20188;-73
2021/11/03 03:21:22;;;;;;;21.63;10.73;;;6.80;98.50;;;;;;5033704;28;20343;-73
2021/11/03 03:23:48;;;;;;;11.87;8.47;;;6.70;98.50;;;;;;5033011;28;20303;-73
2021/11/03 03:26:15;;;;;;;15.93;8.20;;;6.70;98.50;;;;;;5027782;28;20437;-72
2021/11/03 03:28:41;;;;;;;11.33;7.37;;;6.60;98.50;;;;;;5034647;28;20557;-73
2021/11/03 03:31:09;;;;;;;12.67;6.77;;;6.60;98.50;;;;;;5029663;28;20188;-72
2021/11/03 03:33:35;;;;;;;13.97;7.50;;;6.60;98.50;;;;;;5028481;28;20176;-73
2021/11/03 03:36:01;;;;;;;10.63;7.47;;;6.60;98.50;;;;;;5030954;28;20182;-72
2021/11/03 03:38:27;;;;;;;11.13;7.40;;;6.60;98.50;;;;;;5027928;28;20184;-72
2021/11/03 03:40:53;;;;;;;10.80;6.10;;;6.60;98.50;;;;;;5029137;28;20191;-73
2021/11/03 03:43:19;;;;;;;11.33;6.03;;;6.60;98.50;;;;;;5033714;28;20268;-73
2021/11/03 03:45:44;;;;;;;10.97;6.40;;;6.60;98.50;;;;;;5033605;28;20630;-73
2021/11/03 03:48:12;;;;;;;12.50;6.43;;;6.60;98.50;;;;;;5036142;28;20179;-73
2021/11/03 03:50:38;;;;;;;9.50;6.40;;;6.70;98.50;;;;;;5031797;28;20180;-72
2021/11/03 03:53:05;;;;;;;10.60;6.73;;;6.70;98.50;;;;;;5028475;28;20188;-73
2021/11/03 03:55:31;;;;;;;10.87;7.20;;;6.70;98.50;;;;;;5026842;28;20323;-72
2021/11/03 03:57:57;;;;;;;12.83;8.00;;;6.70;98.50;;;;;;5030597;28;20274;-73
2021/11/03 04:00:24;;;;;;;12.43;7.47;;;6.70;98.50;;;;;;5027854;28;20279;-73
2021/11/03 04:02:52;;;;;;;11.00;7.83;;;6.80;98.50;;;;;;5036326;28;20236;-72
2021/11/03 04:05:19;;;;;;;17.97;8.93;;;6.80;98.50;;;;;;5035629;28;20172;-73
2021/11/03 04:07:45;;;;;;;17.73;9.17;;;6.80;98.50;;;;;;5027289;28;20176;-73
2021/11/03 04:10:12;;;;;;;11.60;8.23;;;6.80;98.50;;;;;;5031753;28;21876;-73
2021/11/03 04:12:38;;;;;;;11.90;8.03;;;6.70;98.50;;;;;;5032112;28;20184;-73
2021/11/03 04:15:06;;;;;;;13.87;7.43;;;6.70;98.50;;;;;;5026756;28;20272;-74
2021/11/03 04:17:31;;;;;;;9.70;6.60;;;6.70;98.50;;;;;;5031431;28;20188;-73
2021/11/03 04:19:57;;;;;;;15.67;8.27;;;6.70;98.50;;;;;;5029157;28;20195;-72
2021/11/03 04:22:23;;;;;;;13.53;7.97;;;6.70;98.50;;;;;;5034374;28;20737;-72
2021/11/03 04:24:49;;;;;;;11.33;7.00;;;6.80;98.50;;;;;;5028321;28;20628;-72
2021/11/03 04:27:15;;;;;;;14.10;8.43;;;6.80;98.50;;;;;;5010185;28;20180;-72
2021/11/03 04:29:41;;;;;;;14.87;8.33;;;6.80;98.50;;;;;;5033804;28;20188;-72
2021/11/03 04:32:07;;;;;;;13.03;7.87;;;6.80;98.50;;;;;;5032204;28;20654;-72
2021/11/03 04:34:33;;;;;;;14.10;8.13;;;6.80;98.50;;;;;;5034536;28;20202;-72
2021/11/03 04:36:59;;;;;;;12.13;7.83;;;6.80;98.50;;;;;;5040405;28;20176;-72
2021/11/03 04:39:26;;;;;;;13.90;8.53;;;6.80;98.50;;;;;;5029548;28;20180;-72
2021/11/03 04:41:52;;;;;;;12.67;8.70;;;6.80;98.50;;;;;;5032102;28;20185;-72
2021/11/03 04:44:17;;;;;;;14.23;7.73;;;6.80;98.50;;;;;;5015477;28;20215;-72
2021/11/03 04:46:44;;;;;;;17.00;9.47;;;6.80;98.50;;;;;;5037318;28;20187;-73
2021/11/03 04:49:10;;;;;;;14.40;8.67;;;6.80;98.50;;;;;;5026816;28;20180;-73
2021/11/03 04:51:36;;;;;;;13.23;8.23;;;6.80;98.50;;;;;;5031686;28;20663;-73
2021/11/03 04:54:02;;;;;;;13.40;7.03;;;6.80;98.50;;;;;;5031386;28;20216;-71
2021/11/03 04:56:29;;;;;;;11.10;8.03;;;6.80;98.50;;;;;;5037329;28;20184;-72
2021/11/03 04:58:55;;;;;;;12.90;7.13;;;6.70;98.50;;;;;;5031594;28;20188;-72
2021/11/03 05:01:22;;;;;;;14.33;8.93;;;6.70;98.50;;;;;;5031592;28;20683;-73
2021/11/03 05:03:49;;;;;;;14.07;9.53;;;6.80;98.50;;;;;;5035293;28;20212;-73
2021/11/03 05:06:17;;;;;;;12.73;9.07;;;6.70;98.50;;;;;;5031801;28;20243;-73
2021/11/03 05:08:43;;;;;;;17.57;9.33;;;6.80;98.50;;;;;;5028430;28;20262;-73
2021/11/03 05:11:09;;;;;;;15.90;9.27;;;6.80;98.50;;;;;;5030909;28;20318;-73
2021/11/03 05:13:35;;;;;;;12.47;7.10;;;6.80;98.50;;;;;;5035034;28;20180;-73
2021/11/03 05:16:01;;;;;;;15.03;7.10;;;6.90;98.50;;;;;;5032950;28;20192;-73
2021/11/03 05:18:27;;;;;;;9.33;6.53;;;6.90;98.50;;;;;;5032069;28;20195;-73
2021/11/03 05:20:53;;;;;;;13.80;7.53;;;6.90;98.50;;;;;;5030917;28;20208;-73
2021/11/03 05:23:24;;;;;;;11.17;6.93;;;7.00;98.50;;;;;;5033074;28;20365;-73
2021/11/03 05:25:53;;;;;;;8.90;6.53;;;6.90;98.50;;;;;;5031171;28;20234;-73
2021/11/03 05:28:19;;;;;;;13.47;6.70;;;6.90;98.50;;;;;;5027963;28;20184;-72
2021/11/03 05:30:45;;;;;;;11.63;6.07;;;7.00;98.50;;;;;;5033051;28;20176;-72
2021/11/03 05:33:11;;;;;;;9.17;7.03;;;7.00;98.50;;;;;;5036976;28;20192;-72
2021/11/03 05:35:37;;;;;;;8.53;6.47;;;7.00;98.50;;;;;;5041040;28;20825;-72
2021/11/03 05:38:03;;;;;;;13.77;7.83;;;7.10;98.50;;;;;;5009863;28;20192;-72
2021/11/03 05:40:29;;;;;;;12.00;6.43;;;7.10;98.50;;;;;;5031999;28;20626;-73
2021/11/03 05:42:56;;;;;;;9.80;6.50;;;7.10;98.50;;;;;;5031545;28;20217;-73
2021/11/03 05:45:23;;;;;;;13.63;6.87;;;7.00;98.50;;;;;;5032070;28;20695;-73
2021/11/03 05:47:49;;;;;;;12.80;6.77;;;7.00;98.50;;;;;;5035306;28;20189;-73
2021/11/03 05:50:19;;;;;;;11.33;6.70;;;7.00;98.50;;;;;;5033682;28;20192;-73
2021/11/03 05:52:45;;;;;;;10.90;6.50;;;7.10;98.50;;;;;;5031241;28;20180;-74
2021/11/03 05:55:11;;;;;;;11.73;6.53;;;7.00;98.50;;;;;;5009887;28;20665;-73
2021/11/03 05:57:38;;;;;;;11.30;6.13;;;7.00;98.50;;;;;;5029006;28;20544;-73
2021/11/03 06:00:18;;;;;;;9.40;7.10;;;7.10;98.50;;;;;;5029702;28;20184;-72
2021/11/03 06:02:44;;;;;;;11.80;7.40;;;7.10;98.50;;;;;;5028217;28;20189;-73
2021/11/03 06:05:11;;;;;;;12.03;7.90;;;7.20;98.50;;;;;;5010500;28;20203;-72
2021/11/03 06:07:36;;;;;;;15.67;8.40;;;7.20;98.50;;;;;;5032159;28;20216;-73
2021/11/03 06:10:05;;;;;;;11.67;8.17;;;7.20;98.50;;;;;;5031534;28;20208;-72
2021/11/03 06:12:31;;;;;;;14.63;8.40;;;7.20;98.50;;;;;;5028214;28;20186;-73
2021/11/03 06:14:56;;;;;;;17.93;8.97;;;7.20;98.50;;;;;;5027817;28;20267;-72
2021/11/03 06:17:22;;;;;;;17.93;9.00;;;7.10;98.50;;;;;;5028004;28;20184;-72
2021/11/03 06:19:48;;;;;;;15.63;9.03;;;7.00;98.50;;;;;;5029458;28;20188;-73
2021/11/03 06:22:14;;;;;;;14.40;8.23;;;6.90;98.50;;;;;;5032513;28;20185;-73
2021/11/03 06:24:44;;;;;;;13.50;8.30;;;6.90;98.50;;;;;;5029716;28;20243;-71
2021/11/03 06:27:10;;;;;;;16.40;9.60;;;6.90;98.50;;;;;;5009070;28;20258;-71
2021/11/03 06:29:36;;;;;;;16.03;9.57;;;6.90;98.50;;;;;;5030038;28;20961;-70
2021/11/03 06:32:02;;;;;;;12.60;8.80;;;7.00;98.50;;;;;;5033215;28;20180;-71
2021/11/03 06:34:28;;;;;;;12.60;8.77;;;6.90;98.50;;;;;;5030104;28;20196;-72
2021/11/03 06:36:54;;;;;;;16.60;8.77;;;6.90;98.50;;;;;;5028602;28;20191;-71
2021/11/03 06:39:20;;;;;;;17.00;8.70;;;6.90;98.50;;;;;;5031169;28;20182;-70
2021/11/03 06:41:46;;;;;;;12.63;8.33;;;6.90;98.50;;;;;;5030754;28;20185;-71
2021/11/03 06:44:12;;;;;;;15.73;9.03;;;7.00;98.50;;;;;;5025623;28;20219;-73
2021/11/03 06:46:38;;;;;;;17.40;8.30;;;7.10;98.50;;;;;;5028265;28;20184;-73
2021/11/03 06:49:04;;;;;;;16.00;9.27;;;7.20;98.50;;;;;;5030147;28;20771;-73
2021/11/03 06:51:30;;;;;;;13.20;7.60;;;7.20;98.50;;;;;;5021484;28;20645;-74
2021/11/03 06:53:56;;;;;;;17.57;8.93;;;7.30;98.50;;;;;;5031321;28;20192;-73
2021/11/03 06:56:21;;;;;;;15.27;9.23;;;7.40;98.50;;;;;;5026598;28;20238;-75
2021/11/03 06:58:47;;;;;;;16.70;8.63;;;7.50;98.50;;;;;;5027549;28;20188;-75
2021/11/03 07:01:13;;;;;;;16.23;8.50;;;7.50;98.50;;;;;;5025021;28;20184;-76
2021/11/03 07:03:40;;;;;;;18.63;8.53;;;7.60;98.50;;;;;;5025251;28;20298;-76
2021/11/03 07:06:06;;;;;;;15.23;8.87;;;7.60;98.50;;;;;;5030825;28;20222;-76
2021/11/03 07:08:32;;;;;;;14.87;8.13;;;7.70;98.50;;;;;;5029255;28;20216;-73
2021/11/03 07:11:00;;;;;;;12.47;8.27;;;7.80;98.50;;;;;;5030135;28;20430;-74
2021/11/03 07:13:27;;;;;;;15.90;8.57;;;7.80;98.50;;;;;;5028222;28;20589;-74
2021/11/03 07:15:55;;;;;;;14.50;8.57;;;7.80;98.50;;;;;;5025761;28;20687;-74
2021/11/03 07:18:22;;;;;;;15.37;8.37;;;7.90;98.50;;;;;;5025082;28;20239;-74
2021/11/03 07:20:49;;;;;;;16.00;8.27;;;8.00;98.50;;;;;;5033784;28;20187;-74
2021/11/03 07:23:19;;;;;;;12.60;7.77;;;8.00;98.50;;;;;;5028539;28;20270;-74
2021/11/03 07:25:45;;;;;;;16.67;9.30;;;8.10;98.50;;;;;;5030462;28;20275;-74
2021/11/03 07:28:12;;;;;;;18.13;8.97;;;8.20;98.50;;;;;;5027290;28;20724;-74
2021/11/03 07:30:39;;;;;;;14.77;8.57;;;8.30;98.50;;;;;;5021581;28;20187;-75
2021/11/03 07:33:07;;;;;;;17.77;9.10;;;8.30;98.50;;;;;;5024289;28;20184;-73
2021/11/03 07:35:33;;;;;;;13.80;9.10;;;8.40;98.50;;;;;;5024135;28;20208;-73
2021/11/03 07:38:00;;;;;;;15.90;9.00;;;8.40;98.50;;;;;;5031445;28;20180;-73
2021/11/03 07:40:30;;;;;;;14.80;9.90;;;8.50;98.50;;;;;;5027067;28;20175;-79
2021/11/03 07:42:58;;;;;;;13.87;8.80;;;8.60;98.50;;;;;;5024583;28;20188;-75
2021/11/03 07:45:25;;;;;;;13.77;8.40;;;8.60;98.50;;;;;;5027788;28;20180;-73
2021/11/03 07:47:50;;;;;;;18.00;9.77;;;8.60;98.50;;;;;;5026230;28;20180;-73
2021/11/03 07:50:21;;;;;;;13.90;9.13;;;8.70;98.50;;;;;;5029562;28;20825;-73
2021/11/03 07:52:47;;;;;;;19.57;10.17;;;8.70;98.10;;;;;;5027102;28;20219;-73
2021/11/03 07:55:13;;;;;;;16.13;10.33;;;8.70;97.90;;;;;;5025806;28;20948;-73
2021/11/03 07:57:39;;;;;;;15.83;9.33;;;8.60;97.20;;;;;;5027409;28;20204;-73
2021/11/03 08:00:08;;;;;;;15.43;9.83;;;8.60;97.50;;;;;;5031860;28;20262;-73
2021/11/03 08:02:34;;;;;;;17.87;10.27;;;8.60;97.60;;;;;;5026938;28;20193;-73
2021/11/03 08:04:59;;;;;;;15.57;9.73;;;8.60;97.70;;;;;;5026894;28;20221;-75
2021/11/03 08:07:25;;;;;;;15.57;8.47;;;8.70;97.60;;;;;;5025317;28;20277;-74
2021/11/03 08:09:51;;;;;;;18.17;10.50;;;8.80;97.90;;;;;;5017155;28;20711;-74
2021/11/03 08:12:19;;;;;;;21.47;10.83;;;8.80;97.70;;;;;;5023260;28;20608;-72
2021/11/03 08:14:45;;;;;;;11.13;8.60;;;8.90;97.40;;;;;;5019029;28;20731;-74
2021/11/03 08:17:15;;;;;;;18.80;9.00;;;9.00;97.20;;;;;;5025454;28;20192;-74
2021/11/03 08:19:48;;;;;;;18.37;8.80;;;9.00;97.10;;;;;;5024923;28;20192;-75
2021/11/03 08:22:20;;;;;;;20.70;10.40;;;9.10;97.10;;;;;;5023140;28;20196;-74
2021/11/03 08:24:49;;;;;;;16.03;10.50;;;9.20;97.20;;;;;;5021946;28;21850;-75
2021/11/03 08:27:15;;;;;;;21.10;10.50;;;9.30;97.00;;;;;;5022190;28;20176;-75
2021/11/03 08:29:41;;;;;;;20.93;11.00;;;9.30;96.50;;;;;;5020303;28;20250;-74
2021/11/03 08:32:11;;;;;;;17.83;11.47;;;9.30;96.10;;;;;;5020936;28;20181;-75
2021/11/03 08:34:38;;;;;;;24.37;11.57;;;9.30;96.10;;;;;;5022358;28;20196;-75
2021/11/03 08:37:14;;;;;;;19.73;11.70;;;9.30;96.40;;;;;;5030876;28;20188;-73
2021/11/03 08:39:42;;;;;;;17.50;10.03;;;9.40;96.60;;;;;;5009205;28;21015;-73
2021/11/03 08:42:08;;;;;;;19.40;10.87;;;9.50;97.00;;;;;;5032355;28;20625;-75
2021/11/03 08:44:36;;;;;;;20.13;10.97;;;9.70;96.80;;;;;;5030690;28;20610;-74
2021/11/03 08:47:04;;;;;;;24.10;12.30;;;9.80;96.80;;;;;;5022577;28;20179;-75
2021/11/03 08:49:31;;;;;;;25.37;13.67;;;9.90;96.70;;;;;;5007807;28;20180;-75
2021/11/03 08:51:59;;;;;;;20.50;11.13;;;10.10;96.20;;;;;;5030810;28;20568;-76
2021/11/03 08:54:24;;;;;;;25.67;12.77;;;10.20;95.90;;;;;;5030369;28;20180;-73
2021/11/03 08:56:50;;;;;;;22.23;12.57;;;10.30;95.70;;;;;;5027816;28;20681;-73
2021/11/03 08:59:16;;;;;;;25.47;13.00;;;10.40;94.80;;;;;;5028043;28;20246;-72
2021/11/03 09:01:44;;;;;;;27.10;12.40;;;10.50;94.90;;;;;;5027147;28;20176;-72
2021/11/03 09:04:11;;;;;;;28.10;13.07;;;10.60;94.80;;;;;;5027425;28;20287;-74
2021/11/03 09:06:37;;;;;;;24.60;13.30;;;10.80;94.90;;;;;;5030209;28;20707;-74
2021/11/03 09:09:04;;;;;;;25.57;12.40;;;10.90;94.60;;;;;;5031591;28;20219;-73
2021/11/03 09:11:30;;;;;;;25.95;13.60;;;11.10;94.50;;;;;;5029364;28;20180;-74
2021/11/03 09:13:56;;;;;;;23.23;12.93;;;11.20;93.90;;;;;;5029343;28;20738;-74
2021/11/03 09:16:21;;;;;;;32.28;16.17;;;11.30;93.30;;;;;;5028378;28;20207;-75
2021/11/03 09:18:48;;;;;;;30.00;15.17;;;11.20;91.60;;;;;;5033305;28;20263;-74
2021/11/03 09:21:14;;;;;;;26.27;14.63;;;11.00;91.90;;;;;;5032481;28;20851;-74
2021/11/03 09:23:41;;;;;;;31.08;14.50;;;11.00;92.30;;;;;;5015237;28;20241;-75
2021/11/03 09:26:06;;;;;;;27.88;15.07;;;11.00;92.10;;;;;;5028954;28;20563;-75
2021/11/03 09:28:34;;;;;;;26.63;13.82;;;11.00;92.30;;;;;;5032654;28;20184;-75
2021/11/03 09:31:02;;;;;;;26.30;13.68;;;11.00;92.50;;;;;;5014678;28;20230;-75
2021/11/03 09:33:29;;;;;;;22.00;12.85;;;11.00;92.60;;;;;;5032102;28;20189;-75
2021/11/03 09:35:56;;;;;;;24.38;13.52;;;11.00;92.30;;;;;;5016596;28;20184;-75
2021/11/03 09:38:26;;;;;;;30.75;15.00;;;11.00;92.60;;;;;;5032387;28;20180;-75
2021/11/03 09:40:57;;;;;;;24.67;13.95;;;11.10;92.90;;;;;;5026927;28;20206;-75
2021/11/03 09:43:34;;;;;;;27.10;14.43;;;11.20;93.10;;;;;;5033764;28;20219;-75
2021/11/03 09:46:17;;;;;;;27.42;14.30;;;11.30;92.30;;;;;;5033889;28;20180;-75
2021/11/03 09:48:44;;;;;;;24.15;13.77;;;11.40;92.20;;;;;;5033746;28;20374;-75
2021/11/03 09:51:18;;;;;;;25.77;13.85;;;11.60;92.80;;;;;;5034148;28;20233;-75
2021/11/03 09:53:49;;;;;;;29.90;15.05;;;11.80;92.70;;;;;;5034319;28;20264;-75
2021/11/03 09:56:19;;;;;;;34.92;15.07;;;12.10;93.20;;;;;;5010667;28;20282;-75
2021/11/03 09:59:00;;;;;;;26.48;15.05;;;12.40;92.00;;;;;;5029939;28;20238;-75
2021/11/03 10:01:25;;;;;;;30.25;15.88;;;12.70;91.60;;;;;;5029312;28;21661;-75
2021/11/03 10:04:10;;;;;;;30.83;15.98;;;13.00;90.00;;;;;;5032046;28;20215;-73
2021/11/03 10:06:51;;;;;;;31.92;16.27;;;13.30;89.70;;;;;;5029281;28;20179;-74
2021/11/03 10:09:17;;;;;;;28.20;16.48;;;13.70;89.20;;;;;;5029436;28;20675;-74
2021/11/03 10:11:47;;;;;;;35.08;18.20;;;14.20;88.70;;;;;;5030728;28;20212;-75
2021/11/03 10:14:13;;;;;;;30.45;17.13;;;14.60;87.10;;;;;;5029268;28;20184;-74
2021/11/03 10:16:46;;;;;;;34.22;17.85;;;14.90;85.50;;;;;;5029979;28;20233;-74
2021/11/03 10:19:14;;;;;;;34.25;19.00;;;15.10;84.60;;;;;;5029504;28;20310;-75
2021/11/03 10:21:45;;;;;;;38.50;20.08;;;15.40;84.80;;;;;;5028343;28;20583;-77
2021/11/03 10:24:11;;;;;;;32.55;18.42;;;15.90;83.70;;;;;;5030406;28;20635;-74
2021/11/03 10:26:54;;;;;;;34.28;20.00;;;16.40;82.80;;;;;;5029464;28;20176;-74
2021/11/03 10:29:32;;;;;;;44.97;20.95;;;16.90;81.20;;;;;;5031882;28;20579;-72
2021/11/03 10:32:33;;;;;;;42.03;21.67;;;17.20;79.80;;;;;;5028766;28;20962;-73
2021/11/03 10:35:15;;;;;;;33.90;19.65;;;17.30;77.70;;;;;;5031209;28;20184;-74
2021/11/03 10:37:46;;;;;;;37.45;19.42;;;17.40;78.20;;;;;;5032871;28;20188;-74
2021/11/03 10:40:22;;;;;;;38.92;20.95;;;17.50;78.00;;;;;;5031519;28;20260;-74
2021/11/03 10:42:57;;;;;;;37.60;19.92;;;17.60;77.30;;;;;;5030747;28;20203;-74
2021/11/03 10:45:36;;;;;;;36.40;19.08;;;17.80;77.60;;;;;;5029193;28;20218;-72
2021/11/03 10:48:25;;;;;;;42.67;20.48;;;18.10;77.20;;;;;;5034936;28;20884;-73
2021/11/03 10:51:11;;;;;;;36.05;20.27;;;18.40;76.60;;;;;;5027478;28;20954;-75
2021/11/03 10:53:39;;;;;;;35.60;21.75;;;18.60;75.90;;;;;;5030457;28;20708;-76
2021/11/03 10:56:32;;;;;;;38.35;20.88;;;18.60;73.80;;;;;;5024940;28;20266;-74
2021/11/03 10:59:03;;;;;;;39.20;19.95;;;18.60;75.20;;;;;;5029571;28;20184;-74
2021/11/03 11:01:32;;;;;;;44.15;20.42;;;18.60;75.30;;;;;;5037715;28;20256;-72
2021/11/03 11:04:18;;;;;;;32.85;19.42;;;18.60;74.30;;;;;;5029263;28;20232;-72
2021/11/03 11:06:48;;;;;;;36.25;20.25;;;18.50;74.20;;;;;;5033832;28;20207;-75
2021/11/03 11:09:28;;;;;;;36.42;19.75;;;18.30;74.60;;;;;;5030642;28;20322;-75
2021/11/03 11:11:58;;;;;;;32.88;19.48;;;18.20;74.90;;;;;;5033874;28;20680;-72
2021/11/03 11:14:29;;;;;;;31.75;18.85;;;18.10;75.40;;;;;;5030913;28;20189;-73
2021/11/03 11:17:00;;;;;;;41.05;22.35;;;18.00;75.60;;;;;;5031322;28;20249;-73
2021/11/03 11:19:52;;;;;;;43.60;23.63;;;18.10;76.00;;;;;;5024148;28;20206;-73
2021/11/03 11:22:53;;;;;;;39.15;23.08;;;18.40;75.40;;;;;;5029029;28;20211;-74
2021/11/03 11:25:59;;;;;;;40.75;23.00;;;18.80;75.70;;;;;;4951903;28;20202;-79
2021/11/03 11:28:51;;;;;;;46.15;24.85;;;19.40;74.40;;;;;;4952662;28;20198;-76
2021/11/03 11:31:35;;;;;;;50.40;26.08;;;19.90;72.40;;;;;;4947363;28;20253;-77
2021/11/03 11:34:23;;;;;;;54.15;27.15;;;20.20;72.40;;;;;;4953324;28;20198;-76
2021/11/03 11:37:08;;;;;;;61.17;30.70;;;20.60;71.30;;;;;;4949127;28;20310;-77
2021/11/03 11:39:56;;;;;;;59.22;31.58;;;20.80;70.50;;;;;;4950818;28;20642;-77
2021/11/03 11:42:35;;;;;;;51.90;27.50;;;20.70;69.30;;;;;;4946605;28;20280;-77
2021/11/03 11:45:13;;;;;;;60.28;30.48;;;20.60;70.70;;;;;;4950247;28;20214;-77
2021/11/03 11:47:47;;;;;;;58.53;31.13;;;20.50;70.40;;;;;;4952631;28;20209;-78
2021/11/03 11:50:24;;;;;;;53.20;28.63;;;20.30;69.90;;;;;;4951361;28;20195;-77
2021/11/03 11:52:52;;;;;;;62.65;31.45;;;20.10;69.90;;;;;;4950478;28;20195;-76
2021/11/03 11:55:20;;;;;;;59.90;29.83;;;19.90;70.90;;;;;;4950394;28;20190;-76
2021/11/03 11:58:07;;;;;;;61.10;29.55;;;19.90;71.70;;;;;;4952840;28;20186;-76
2021/11/03 12:00:39;;;;;;;62.10;29.98;;;19.70;71.70;;;;;;4952437;28;20218;-76
2021/11/03 12:03:07;;;;;;;60.50;31.45;;;19.70;71.50;;;;;;5019991;28;20196;-75
2021/11/03 12:05:43;;;;;;;64.15;32.00;;;19.60;71.70;;;;;;5032242;28;20275;-76
2021/11/03 12:08:09;;;;;;;63.97;30.65;;;19.60;71.90;;;;;;5032586;28;20190;-75
2021/11/03 12:11:13;;;;;;;56.72;30.58;;;19.70;71.60;;;;;;5033659;28;20180;-77
2021/11/03 12:13:45;;;;;;;57.70;28.98;;;19.80;71.60;;;;;;5030081;28;20215;-77
2021/11/03 12:16:32;;;;;;;62.08;31.60;;;20.00;70.70;;;;;;5024957;28;20242;-77
2021/11/03 12:18:59;;;;;;;57.00;30.92;;;20.00;69.80;;;;;;5030365;28;20190;-77
2021/11/03 12:21:25;;;;;;;60.22;31.40;;;20.00;70.80;;;;;;5029021;28;20226;-77
2021/11/03 12:24:28;;;;;;;59.95;32.40;;;19.90;70.90;;;;;;5024890;28;20818;-76
2021/11/03 12:27:22;;;;;;;52.25;29.88;;;19.70;70.00;;;;;;4970045;28;20716;-76
2021/11/03 12:30:09;;;;;;;58.50;29.38;;;19.20;71.20;;;;;;4970220;28;20206;-77
2021/11/03 12:32:44;;;;;;;59.55;30.63;;;18.90;72.20;;;;;;4968936;28;20190;-76
2021/11/03 12:35:18;;;;;;;59.72;30.25;;;18.60;72.80;;;;;;4963082;28;20282;-77
2021/11/03 12:37:51;;;;;;;63.45;31.27;;;18.40;72.90;;;;;;4966629;28;20293;-77
2021/11/03 12:40:30;;;;;;;57.42;30.05;;;18.00;73.80;;;;;;4970727;28;20197;-77
2021/11/03 12:43:24;;;;;;;65.60;30.95;;;17.80;74.80;;;;;;4971646;28;20193;-76
2021/11/03 12:46:07;;;;;;;61.85;30.63;;;17.80;75.50;;;;;;4968157;28;21876;-77
2021/11/03 12:48:49;;;;;;;67.45;33.33;;;18.00;75.30;;;;;;4967319;28;20194;-76
2021/11/03 12:51:24;;;;;;;72.07;33.40;;;18.20;74.40;;;;;;4974623;28;20285;-75
2021/11/03 12:54:12;;;;;;;68.28;34.30;;;18.40;74.30;;;;;;4980164;28;20683;-76